createdAt,value
2019-02-04T00:01:17.530Z,5
2019-02-04T00:06:05.985Z,5
2019-02-04T00:11:06.127Z,5
2019-02-04T00:16:06.366Z,8
2019-02-04T00:21:06.181Z,6
2019-02-04T00:26:06.201Z,8
2019-02-04T00:31:06.134Z,5
2019-02-04T00:36:06.201Z,8
2019-02-04T00:41:06.248Z,6
2019-02-04T00:46:05.995Z,6
2019-02-04T00:51:06.137Z,10
2019-02-04T00:56:06.138Z,8
2019-02-04T01:01:06.000Z,2
2019-02-04T01:06:06.267Z,13
2019-02-04T01:11:06.363Z,12
2019-02-04T01:16:06.150Z,11
2019-02-04T01:21:06.236Z,11
2019-02-04T01:26:06.056Z,13
2019-02-04T01:31:06.178Z,11
2019-02-04T01:36:06.261Z,13
2019-02-04T01:41:06.058Z,16
2019-02-04T01:46:06.213Z,10
2019-02-04T01:51:06.103Z,12
2019-02-04T01:56:06.220Z,13
2019-02-04T02:01:06.172Z,14
2019-02-04T02:06:06.126Z,14
2019-02-04T02:11:06.294Z,15
2019-02-04T02:16:06.229Z,13
2019-02-04T02:21:06.047Z,16
2019-02-04T02:26:05.834Z,13
2019-02-04T02:31:06.133Z,11
2019-02-04T02:36:05.902Z,14
2019-02-04T02:41:06.044Z,12
2019-02-04T02:46:06.024Z,12
2019-02-04T02:51:06.076Z,13
2019-02-04T02:56:06.057Z,13
2019-02-04T03:01:05.795Z,11
2019-02-04T03:06:05.762Z,11
2019-02-04T03:11:06.093Z,15
2019-02-04T03:16:06.099Z,16
2019-02-04T03:21:05.813Z,15
2019-02-04T03:26:05.860Z,13
2019-02-04T03:31:05.997Z,13
2019-02-04T03:36:06.040Z,13
2019-02-04T03:41:05.809Z,15
2019-02-04T03:46:05.798Z,13
2019-02-04T03:51:05.815Z,13
2019-02-04T03:56:17.512Z,12
2019-02-04T04:01:05.935Z,8
2019-02-04T04:06:05.959Z,15
2019-02-04T04:11:06.004Z,13
2019-02-04T04:16:05.955Z,10
2019-02-04T04:21:06.036Z,11
2019-02-04T04:26:05.841Z,11
2019-02-04T04:31:05.701Z,14
2019-02-04T04:36:05.986Z,7
2019-02-04T04:41:05.676Z,13
2019-02-04T04:46:05.882Z,12
2019-02-04T04:51:05.935Z,12
2019-02-04T04:56:05.918Z,13
2019-02-04T05:01:05.962Z,11
2019-02-04T05:06:05.724Z,11
2019-02-04T05:11:05.679Z,12
2019-02-04T05:16:05.850Z,13
2019-02-04T05:21:05.738Z,13
2019-02-04T05:26:05.851Z,10
2019-02-04T05:31:05.711Z,10
2019-02-04T05:36:05.704Z,12
2019-02-04T05:41:05.575Z,13
2019-02-04T05:46:05.846Z,11
2019-02-04T05:51:05.678Z,12
2019-02-04T05:56:05.601Z,11
2019-02-04T06:01:05.833Z,10
2019-02-04T06:06:05.548Z,8
2019-02-04T06:11:05.686Z,11
2019-02-04T06:16:05.501Z,10
2019-02-04T06:21:05.575Z,10
2019-02-04T06:26:05.693Z,10
2019-02-04T06:31:05.693Z,9
2019-02-04T06:36:05.531Z,8
2019-02-04T06:41:05.782Z,10
2019-02-04T06:46:05.571Z,6
2019-02-04T06:51:05.714Z,10
2019-02-04T06:56:05.547Z,8
2019-02-04T07:01:05.695Z,10
2019-02-04T07:06:05.467Z,8
2019-02-04T07:11:05.577Z,8
2019-02-04T07:16:05.399Z,8
2019-02-04T07:21:05.624Z,10
2019-02-04T07:26:05.366Z,8
2019-02-04T07:31:05.416Z,10
2019-02-04T07:36:05.516Z,10
2019-02-04T07:41:05.588Z,8
2019-02-04T07:46:05.651Z,10
2019-02-04T07:51:05.364Z,10
2019-02-04T07:56:05.348Z,8
2019-02-04T08:01:05.461Z,8
2019-02-04T08:06:05.496Z,8
2019-02-04T08:11:05.373Z,8
2019-02-04T08:16:05.614Z,5
2019-02-04T08:21:05.501Z,10
2019-02-04T08:26:05.626Z,6
2019-02-04T08:31:05.659Z,8
2019-02-04T08:36:05.584Z,6
2019-02-04T08:41:05.692Z,10
2019-02-04T08:46:05.557Z,8
2019-02-04T08:51:05.565Z,10
2019-02-04T08:56:05.343Z,8
2019-02-04T09:01:05.426Z,8
2019-02-04T09:06:05.286Z,6
2019-02-04T09:11:05.349Z,6
2019-02-04T09:16:05.310Z,5
2019-02-04T09:21:05.484Z,7
2019-02-04T09:26:05.494Z,6
2019-02-04T09:31:05.510Z,8
2019-02-04T09:36:05.419Z,5
2019-02-04T09:41:05.296Z,4
2019-02-04T09:46:05.395Z,6
2019-02-04T09:51:05.257Z,5
2019-02-04T09:56:05.506Z,6
2019-02-04T10:01:05.263Z,5
2019-02-04T10:06:05.253Z,8
2019-02-04T10:11:05.330Z,6
2019-02-04T10:16:05.233Z,8
2019-02-04T10:21:05.303Z,6
2019-02-04T10:26:05.207Z,6
2019-02-04T10:31:05.268Z,6
2019-02-04T10:36:05.441Z,7
2019-02-04T10:41:05.154Z,9
2019-02-04T10:46:05.308Z,4
2019-02-04T10:51:05.344Z,6
2019-02-04T10:56:05.109Z,8
2019-02-04T11:01:05.523Z,6
2019-02-04T11:06:05.367Z,7
2019-02-04T11:11:05.386Z,9
2019-02-04T11:16:05.202Z,8
2019-02-04T11:21:05.205Z,6
2019-02-04T11:26:05.083Z,8
2019-02-04T11:31:05.345Z,8
2019-02-04T11:36:05.147Z,7
2019-02-04T11:41:05.338Z,9
2019-02-04T11:46:05.412Z,7
2019-02-04T11:51:09.858Z,8
2019-02-04T11:56:05.069Z,8
2019-02-04T12:01:05.305Z,8
2019-02-04T12:06:05.131Z,8
2019-02-04T12:11:05.246Z,9
2019-02-04T12:16:05.340Z,7
2019-02-04T12:21:05.053Z,8
2019-02-04T12:26:05.019Z,6
2019-02-04T12:31:05.138Z,8
2019-02-04T12:36:05.003Z,6
2019-02-04T12:41:05.387Z,8
2019-02-04T12:46:05.143Z,6
2019-02-04T12:51:05.174Z,5
2019-02-04T12:56:05.270Z,8
2019-02-04T13:01:05.066Z,8
2019-02-04T13:06:04.932Z,8
2019-02-04T13:11:05.065Z,8
2019-02-04T13:16:04.873Z,6
2019-02-04T13:21:05.087Z,9
2019-02-04T13:26:05.009Z,6
2019-02-04T13:31:05.036Z,6
2019-02-04T13:36:05.111Z,8
2019-02-04T13:41:08.074Z,9
2019-02-04T13:46:05.962Z,8
2019-02-04T13:51:05.189Z,11
2019-02-04T13:56:04.913Z,9
2019-02-04T14:01:04.875Z,8
2019-02-04T14:06:05.069Z,8
2019-02-04T14:11:05.247Z,10
2019-02-04T14:16:05.083Z,8
2019-02-04T14:21:05.319Z,11
2019-02-04T14:26:04.813Z,9
2019-02-04T14:31:05.169Z,9
2019-02-04T14:36:05.147Z,9
2019-02-04T14:41:04.916Z,9
2019-02-04T14:46:05.025Z,9
2019-02-04T14:51:05.042Z,8
2019-02-04T14:56:04.999Z,9
2019-02-04T15:01:04.803Z,8
2019-02-04T15:06:05.032Z,9
2019-02-04T15:11:04.885Z,9
2019-02-04T15:16:04.784Z,11
2019-02-04T15:21:05.041Z,10
2019-02-04T15:26:04.756Z,8
2019-02-04T15:31:05.041Z,8
2019-02-04T15:36:04.724Z,4
2019-02-04T15:41:04.922Z,9
2019-02-04T15:46:04.881Z,2
2019-02-04T15:51:04.965Z,9
2019-02-04T15:56:04.961Z,9
2019-02-04T16:01:04.941Z,10
2019-02-04T16:06:04.931Z,9
2019-02-04T16:11:04.773Z,8
2019-02-04T16:16:04.863Z,11
2019-02-04T16:21:04.777Z,11
2019-02-04T16:26:04.970Z,9
2019-02-04T16:31:05.022Z,9
2019-02-04T16:36:04.883Z,9
2019-02-04T16:41:04.704Z,8
2019-02-04T16:46:04.630Z,11
2019-02-04T16:51:11.677Z,9
2019-02-04T16:56:04.688Z,8
2019-02-04T17:01:04.870Z,8
2019-02-04T17:06:04.799Z,9
2019-02-04T17:11:05.016Z,9
2019-02-04T17:16:04.840Z,9
2019-02-04T17:21:04.723Z,14
2019-02-04T17:26:04.710Z,14
2019-02-04T17:31:04.907Z,19
2019-02-04T17:36:04.683Z,17
2019-02-04T17:41:04.659Z,17
2019-02-04T17:46:04.865Z,14
2019-02-04T17:51:04.563Z,17
2019-02-04T17:56:04.675Z,12
2019-02-04T18:01:04.817Z,15
2019-02-04T18:06:04.817Z,14
2019-02-04T18:11:04.789Z,14
2019-02-04T18:16:04.613Z,16
2019-02-04T18:21:04.708Z,14
2019-02-04T18:26:04.539Z,16
2019-02-04T18:31:04.783Z,16
2019-02-04T18:36:04.823Z,16
2019-02-04T18:41:04.629Z,13
2019-02-04T18:46:04.689Z,14
2019-02-04T18:51:04.862Z,16
2019-02-04T18:56:04.539Z,16
2019-02-04T19:01:04.679Z,16
2019-02-04T19:06:04.704Z,19
2019-02-04T19:11:04.570Z,16
2019-02-04T19:16:04.741Z,21
2019-02-04T19:21:04.869Z,15
2019-02-04T19:26:04.735Z,23
2019-02-04T19:31:04.706Z,26
2019-02-04T19:36:04.818Z,33
2019-02-04T19:41:04.710Z,21
2019-02-04T19:46:04.463Z,24
2019-02-04T19:51:04.798Z,20
2019-02-04T19:56:04.473Z,24
2019-02-04T20:01:04.509Z,22
2019-02-04T20:06:04.582Z,23
2019-02-04T20:11:04.648Z,25
2019-02-04T20:16:04.581Z,20
2019-02-04T20:21:04.764Z,21
2019-02-04T20:26:04.368Z,23
2019-02-04T20:31:04.408Z,27
2019-02-04T20:36:04.568Z,30
2019-02-04T20:41:04.506Z,27
2019-02-04T20:46:04.472Z,33
2019-02-04T20:51:04.695Z,28
2019-02-04T20:56:04.326Z,35
2019-02-04T21:01:04.641Z,33
2019-02-04T21:06:04.605Z,30
2019-02-04T21:11:04.417Z,32
2019-02-04T21:16:04.517Z,29
2019-02-04T21:21:04.401Z,23
2019-02-04T21:26:06.842Z,26
2019-02-04T21:31:04.571Z,23
2019-02-04T21:36:04.407Z,24
2019-02-04T21:41:04.436Z,22
2019-02-04T21:46:04.388Z,20
2019-02-04T21:51:04.520Z,23
2019-02-04T21:56:04.305Z,23
2019-02-04T22:01:04.381Z,23
2019-02-04T22:06:04.394Z,21
2019-02-04T22:11:04.325Z,25
2019-02-04T22:16:04.301Z,19
2019-02-04T22:21:04.286Z,20
2019-02-04T22:26:04.418Z,22
2019-02-04T22:31:04.301Z,20
2019-02-04T22:36:04.433Z,24
2019-02-04T22:41:04.492Z,22
2019-02-04T22:46:04.240Z,20
2019-02-04T22:51:04.210Z,20
2019-02-04T22:56:04.152Z,21
2019-02-04T23:01:04.324Z,22
2019-02-04T23:06:04.294Z,22
2019-02-04T23:11:04.271Z,22
2019-02-04T23:16:04.138Z,23
2019-02-04T23:21:04.523Z,22
2019-02-04T23:26:04.191Z,23
2019-02-04T23:31:04.448Z,18
2019-02-04T23:36:04.253Z,26
2019-02-04T23:41:04.454Z,24
2019-02-04T23:46:04.415Z,25
2019-02-04T23:51:04.079Z,24
2019-02-04T23:56:04.086Z,21
